Roanoke — WDD9656 — position and weather

sailwx.info

Track history (hours):
 
Tides and Currents Weather Stations Pressure Air Temp Water Temp Dewpoint Dewpoint Depression Visibility Wind Speed Wind Dir Waves Ship Positions

Roanoke

Owner: Vane Line Bunkering, Baltimore, MD. More information available from US FCC via Universal Licensing System and Coast Guard Vessel Documentation Center.

Last reported at 2016-May-29 01:32 UTC. Time now 2016-May-29 02:03 UTC.
Position N 39°15' W 076°33'.

Length 32 m; draft 13 m.

Type: Towing. MMSI: 367314510.

Date/timePositionNaut miles runAvg speedWind from/ knotsBaromVisibWave heightAir tempDewpointWater temp
2016-May-29 01:32N 39°15' W 076°33'0 0.0
2016-May-28 20:32N 39°15' W 076°33'0 0.0
2016-May-28 18:10N 39°15' W 076°33'0 0.0
2016-May-28 10:12N 39°15' W 076°33'0 0.0
2016-May-28 09:07N 39°15' W 076°33'0 0.0
2016-May-28 08:31N 39°15' W 076°33'0 0.0
2016-May-28 07:11N 39°15' W 076°33'0 0.0
2016-May-28 06:23N 39°15' W 076°33'0 0.0
2016-May-28 05:33N 39°15' W 076°33'0 0.0
2016-May-28 03:08N 39°15' W 076°33'0 0.0
2016-May-28 01:30N 39°15' W 076°33'0 0.0
2016-May-27 22:20N 39°15' W 076°33'0 0.0
2016-May-27 21:30N 39°15' W 076°33'0 0.0
2016-May-27 11:10N 39°15' W 076°33'0 0.0
2016-May-27 05:28N 39°15' W 076°33'0 0.0
2016-May-27 04:32N 39°15' W 076°33'0 0.0
2016-May-27 01:16N 39°15' W 076°33'0 0.0
2016-May-26 18:29N 39°15' W 076°33'0 0.0
2016-May-26 13:33N 39°15' W 076°33'0 0.0
2016-May-26 11:22N 39°15' W 076°33'0 0.0
2016-May-26 10:32N 39°15' W 076°33'0 0.0
2016-May-26 09:29N 39°15' W 076°33'0 0.0
2016-May-26 08:24N 39°15' W 076°33'0 0.0
2016-May-26 07:25N 39°15' W 076°33'0 0.0
2016-May-26 06:25N 39°15' W 076°33'0 0.0
2016-May-26 05:26N 39°15' W 076°33'0 0.0
2016-May-26 02:19N 39°15' W 076°33'1 0.1
2016-May-25 14:33N 39°15' W 076°34'0 0.2
2016-May-25 11:34N 39°15' W 076°33'0 0.0
2016-May-25 10:31N 39°15' W 076°33'3 3.0
2016-May-25 09:33N 39°13' W 076°31'8 8.1
2016-May-25 08:32N 39°07' W 076°24'7 7.4
2016-May-25 07:33N 38°60' W 076°23'8 7.2
2016-May-25 06:24N 38°52' W 076°25'45 7.3
2016-May-25 00:11N 38°07' W 076°17'6 6.9
2016-May-24 23:15N 38°01' W 076°19'6 8.5
2016-May-24 22:33N 38°04' W 076°26'48 6.0
2016-May-24 14:33N 38°39' W 077°08'7 6.6
2016-May-24 13:33N 38°44' W 077°02'7 7.1
2016-May-24 12:33N 38°51' W 077°01'1 1.4
2016-May-24 11:33N 38°52' W 077°00'0 0.0
2016-May-24 10:31N 38°52' W 077°00'0 0.0
2016-May-24 09:32N 38°52' W 077°00'0 0.0
2016-May-24 08:32N 38°52' W 077°00'0 0.0
2016-May-24 07:33N 38°52' W 077°00'0 0.0
2016-May-24 06:33N 38°52' W 077°00'0 0.0
2016-May-24 05:31N 38°52' W 077°00'0 0.0
2016-May-24 04:32N 38°52' W 077°00'0 0.0
2016-May-24 03:33N 38°52' W 077°00'0 0.0
2016-May-24 02:33N 38°52' W 077°00'0 0.0
2016-May-24 01:31N 38°52' W 077°00'0 0.0
2016-May-24 00:31N 38°52' W 077°00'0 0.0
2016-May-23 23:32N 38°52' W 077°00'0 0.0
2016-May-23 22:33N 38°52' W 077°00'0 0.0
2016-May-23 21:30N 38°52' W 077°00'0 0.0
2016-May-23 20:31N 38°52' W 077°00'0 0.0
2016-May-23 19:32N 38°52' W 077°00'0 0.0
2016-May-23 18:33N 38°52' W 077°00'0 0.0
2016-May-23 17:33N 38°52' W 077°00'0 0.0
2016-May-23 16:31N 38°52' W 077°00'0 0.0
2016-May-23 15:31N 38°52' W 077°00'0 0.0
2016-May-23 14:32N 38°52' W 077°00'0 0.0
2016-May-23 13:33N 38°52' W 077°00'0 0.0
2016-May-23 12:30N 38°52' W 077°00'0 0.0
2016-May-23 11:31N 38°52' W 077°00'0 0.0
2016-May-23 10:32N 38°52' W 077°00'0 0.0
2016-May-23 09:32N 38°52' W 077°00'0 0.0
2016-May-23 08:31N 38°52' W 077°00'0 0.0
2016-May-23 07:31N 38°52' W 077°00'0 0.0
2016-May-23 06:31N 38°52' W 077°00'0 0.0
2016-May-23 05:32N 38°52' W 077°00'0 0.0
2016-May-23 04:33N 38°52' W 077°00'0 0.0
2016-May-23 03:31N 38°52' W 077°00'0 0.0
2016-May-23 02:31N 38°52' W 077°00'0 0.0
2016-May-23 01:32N 38°52' W 077°00'0 0.0
2016-May-23 00:33N 38°52' W 077°00'0 0.0
2016-May-22 23:33N 38°52' W 077°00'0 0.0
2016-May-22 22:31N 38°52' W 077°00'0 0.0
2016-May-22 21:32N 38°52' W 077°00'0 0.0
2016-May-22 20:32N 38°52' W 077°00'0 0.0
2016-May-22 19:33N 38°52' W 077°00'0 0.0
2016-May-22 18:31N 38°52' W 077°00'0 0.0
2016-May-22 17:31N 38°52' W 077°00'0 0.0
2016-May-22 16:32N 38°52' W 077°00'0 0.0
2016-May-22 15:33N 38°52' W 077°00'0 0.0
2016-May-22 14:33N 38°52' W 077°00'3 2.9
2016-May-22 13:33N 38°49' W 077°02'7 7.3
2016-May-22 12:32N 38°42' W 077°04'44 5.3
2016-May-22 04:12N 38°06' W 076°30'48 6.2
2016-May-21 20:28N 38°54' W 076°25'9 8.6
2016-May-21 19:26N 39°03' W 076°23'7 8.4
2016-May-21 18:33N 39°10' W 076°25'8 7.6
2016-May-21 17:33N 39°14' W 076°33'1 0.2
2016-May-21 10:31N 39°15' W 076°34'0 0.0
2016-May-21 09:28N 39°15' W 076°34'0 0.0
2016-May-21 08:23N 39°15' W 076°34'0 0.0
2016-May-21 07:30N 39°15' W 076°34'0 0.0
2016-May-21 06:07N 39°15' W 076°34'0 0.0
2016-May-21 05:19N 39°15' W 076°34'0 0.5
2016-May-21 04:33N 39°15' W 076°34'6 6.4
2016-May-21 03:33N 39°11' W 076°27'7 6.5
2016-May-21 02:29N 39°14' W 076°19'7 7.4
2016-May-21 01:31N 39°19' W 076°13'7 7.6
2016-May-21 00:33N 39°23' W 076°05'7 7.2
2016-May-20 23:33N 39°28' W 075°58'6 6.5
2016-May-20 22:33N 39°32' W 075°51'6 6.3
2016-May-20 21:33N 39°33' W 075°43'7 7.0
2016-May-20 20:33N 39°34' W 075°34'7 6.9
2016-May-20 19:33N 39°40' W 075°32'9 9.0
2016-May-20 18:33N 39°48' W 075°25'8 7.9
2016-May-20 17:34N 39°51' W 075°16'4 3.6
2016-May-20 16:31N 39°54' W 075°12'0 0.0
2016-May-20 15:33N 39°54' W 075°13'0 0.1
2016-May-20 14:31N 39°54' W 075°12'1 0.6
2016-May-20 13:28N 39°53' W 075°12'0 0.0
2016-May-20 12:31N 39°53' W 075°12'0 0.0
2016-May-20 11:32N 39°53' W 075°12'0 0.0
2016-May-20 10:33N 39°53' W 075°12'0 0.0
2016-May-20 09:33N 39°53' W 075°12'0 0.0
2016-May-20 08:31N 39°53' W 075°12'0 0.0
2016-May-20 07:32N 39°54' W 075°12'1 0.7
2016-May-20 06:32N 39°54' W 075°12'5 4.9
2016-May-20 05:33N 39°51' W 075°17'9 9.0
2016-May-20 04:33N 39°46' W 075°28'9 9.5
2016-May-20 03:33N 39°38' W 075°34'9 9.4
2016-May-20 02:33N 39°29' W 075°34'1010.3
2016-May-20 01:33N 39°21' W 075°26'9 9.2
2016-May-20 00:33N 39°12' W 075°21'2 2.2
2016-May-19 23:32N 39°11' W 075°24'0 0.0
2016-May-19 22:33N 39°11' W 075°24'0 0.0
2016-May-19 21:31N 39°11' W 075°24'0 0.0
2016-May-19 20:28N 39°11' W 075°24'0 0.0
2016-May-19 19:29N 39°11' W 075°24'0 0.0
2016-May-19 18:33N 39°11' W 075°24'0 0.0
2016-May-19 17:33N 39°11' W 075°24'0 0.0
2016-May-19 16:28N 39°11' W 075°24'0 0.0
2016-May-19 15:32N 39°11' W 075°24'0 0.0
2016-May-19 14:32N 39°11' W 075°24'0 0.0
2016-May-19 13:30N 39°11' W 075°24'0 0.1
2016-May-19 12:31N 39°11' W 075°24'4 4.3
2016-May-19 11:34N 39°14' W 075°20'5 4.9
2016-May-19 10:34N 39°18' W 075°23'7 6.6
2016-May-19 09:33N 39°23' W 075°29'7 6.8
2016-May-19 08:34N 39°29' W 075°34'5 5.3
2016-May-19 07:34N 39°33' W 075°38'7 7.3
2016-May-19 06:33N 39°32' W 075°47'6 6.0
2016-May-19 05:34N 39°30' W 075°55'7 7.0
2016-May-19 04:33N 39°25' W 076°01'7 7.0
2016-May-19 03:34N 39°22' W 076°09'7 6.6
2016-May-19 02:33N 39°17' W 076°15'6 6.4
2016-May-19 01:32N 39°13' W 076°21'  
Track history (hours):
 
Tides and Currents Weather Stations Pressure Air Temp Water Temp Dewpoint Dewpoint Depression Visibility Wind Speed Wind Dir Waves Ship Positions

Roanoke

Owner: Vane Line Bunkering, Baltimore, MD. More information available from US FCC via Universal Licensing System and Coast Guard Vessel Documentation Center.

Last reported at 2016-May-29 01:32 UTC. Time now 2016-May-29 02:03 UTC.
Position N 39°15' W 076°33'.

Length 32 m; draft 13 m.

Type: Towing. MMSI: 367314510.

Date/timePositionNaut miles runAvg speedWind from/ knotsBaromVisibWave heightAir tempDewpointWater temp
2016-May-29 01:32N 39°15' W 076°33'0 0.0
2016-May-28 20:32N 39°15' W 076°33'0 0.0
2016-May-28 18:10N 39°15' W 076°33'0 0.0
2016-May-28 10:12N 39°15' W 076°33'0 0.0
2016-May-28 09:07N 39°15' W 076°33'0 0.0
2016-May-28 08:31N 39°15' W 076°33'0 0.0
2016-May-28 07:11N 39°15' W 076°33'0 0.0
2016-May-28 06:23N 39°15' W 076°33'0 0.0
2016-May-28 05:33N 39°15' W 076°33'0 0.0
2016-May-28 03:08N 39°15' W 076°33'0 0.0
2016-May-28 01:30N 39°15' W 076°33'0 0.0
2016-May-27 22:20N 39°15' W 076°33'0 0.0
2016-May-27 21:30N 39°15' W 076°33'0 0.0
2016-May-27 11:10N 39°15' W 076°33'0 0.0
2016-May-27 05:28N 39°15' W 076°33'0 0.0
2016-May-27 04:32N 39°15' W 076°33'0 0.0
2016-May-27 01:16N 39°15' W 076°33'0 0.0
2016-May-26 18:29N 39°15' W 076°33'0 0.0
2016-May-26 13:33N 39°15' W 076°33'0 0.0
2016-May-26 11:22N 39°15' W 076°33'0 0.0
2016-May-26 10:32N 39°15' W 076°33'0 0.0
2016-May-26 09:29N 39°15' W 076°33'0 0.0
2016-May-26 08:24N 39°15' W 076°33'0 0.0
2016-May-26 07:25N 39°15' W 076°33'0 0.0
2016-May-26 06:25N 39°15' W 076°33'0 0.0
2016-May-26 05:26N 39°15' W 076°33'0 0.0
2016-May-26 02:19N 39°15' W 076°33'1 0.1
2016-May-25 14:33N 39°15' W 076°34'0 0.2
2016-May-25 11:34N 39°15' W 076°33'0 0.0
2016-May-25 10:31N 39°15' W 076°33'3 3.0
2016-May-25 09:33N 39°13' W 076°31'8 8.1
2016-May-25 08:32N 39°07' W 076°24'7 7.4
2016-May-25 07:33N 38°60' W 076°23'8 7.2
2016-May-25 06:24N 38°52' W 076°25'45 7.3
2016-May-25 00:11N 38°07' W 076°17'6 6.9
2016-May-24 23:15N 38°01' W 076°19'6 8.5
2016-May-24 22:33N 38°04' W 076°26'48 6.0
2016-May-24 14:33N 38°39' W 077°08'7 6.6
2016-May-24 13:33N 38°44' W 077°02'7 7.1
2016-May-24 12:33N 38°51' W 077°01'1 1.4
2016-May-24 11:33N 38°52' W 077°00'0 0.0
2016-May-24 10:31N 38°52' W 077°00'0 0.0
2016-May-24 09:32N 38°52' W 077°00'0 0.0
2016-May-24 08:32N 38°52' W 077°00'0 0.0
2016-May-24 07:33N 38°52' W 077°00'0 0.0
2016-May-24 06:33N 38°52' W 077°00'0 0.0
2016-May-24 05:31N 38°52' W 077°00'0 0.0
2016-May-24 04:32N 38°52' W 077°00'0 0.0
2016-May-24 03:33N 38°52' W 077°00'0 0.0
2016-May-24 02:33N 38°52' W 077°00'0 0.0
2016-May-24 01:31N 38°52' W 077°00'0 0.0
2016-May-24 00:31N 38°52' W 077°00'0 0.0
2016-May-23 23:32N 38°52' W 077°00'0 0.0
2016-May-23 22:33N 38°52' W 077°00'0 0.0
2016-May-23 21:30N 38°52' W 077°00'0 0.0
2016-May-23 20:31N 38°52' W 077°00'0 0.0
2016-May-23 19:32N 38°52' W 077°00'0 0.0
2016-May-23 18:33N 38°52' W 077°00'0 0.0
2016-May-23 17:33N 38°52' W 077°00'0 0.0
2016-May-23 16:31N 38°52' W 077°00'0 0.0
2016-May-23 15:31N 38°52' W 077°00'0 0.0
2016-May-23 14:32N 38°52' W 077°00'0 0.0
2016-May-23 13:33N 38°52' W 077°00'0 0.0
2016-May-23 12:30N 38°52' W 077°00'0 0.0
2016-May-23 11:31N 38°52' W 077°00'0 0.0
2016-May-23 10:32N 38°52' W 077°00'0 0.0
2016-May-23 09:32N 38°52' W 077°00'0 0.0
2016-May-23 08:31N 38°52' W 077°00'0 0.0
2016-May-23 07:31N 38°52' W 077°00'0 0.0
2016-May-23 06:31N 38°52' W 077°00'0 0.0
2016-May-23 05:32N 38°52' W 077°00'0 0.0
2016-May-23 04:33N 38°52' W 077°00'0 0.0
2016-May-23 03:31N 38°52' W 077°00'0 0.0
2016-May-23 02:31N 38°52' W 077°00'0 0.0
2016-May-23 01:32N 38°52' W 077°00'0 0.0
2016-May-23 00:33N 38°52' W 077°00'0 0.0
2016-May-22 23:33N 38°52' W 077°00'0 0.0
2016-May-22 22:31N 38°52' W 077°00'0 0.0
2016-May-22 21:32N 38°52' W 077°00'0 0.0
2016-May-22 20:32N 38°52' W 077°00'0 0.0
2016-May-22 19:33N 38°52' W 077°00'0 0.0
2016-May-22 18:31N 38°52' W 077°00'0 0.0
2016-May-22 17:31N 38°52' W 077°00'0 0.0
2016-May-22 16:32N 38°52' W 077°00'0 0.0
2016-May-22 15:33N 38°52' W 077°00'0 0.0
2016-May-22 14:33N 38°52' W 077°00'3 2.9
2016-May-22 13:33N 38°49' W 077°02'7 7.3
2016-May-22 12:32N 38°42' W 077°04'44 5.3
2016-May-22 04:12N 38°06' W 076°30'48 6.2
2016-May-21 20:28N 38°54' W 076°25'9 8.6
2016-May-21 19:26N 39°03' W 076°23'7 8.4
2016-May-21 18:33N 39°10' W 076°25'8 7.6
2016-May-21 17:33N 39°14' W 076°33'1 0.2
2016-May-21 10:31N 39°15' W 076°34'0 0.0
2016-May-21 09:28N 39°15' W 076°34'0 0.0
2016-May-21 08:23N 39°15' W 076°34'0 0.0
2016-May-21 07:30N 39°15' W 076°34'0 0.0
2016-May-21 06:07N 39°15' W 076°34'0 0.0
2016-May-21 05:19N 39°15' W 076°34'0 0.5
2016-May-21 04:33N 39°15' W 076°34'6 6.4
2016-May-21 03:33N 39°11' W 076°27'7 6.5
2016-May-21 02:29N 39°14' W 076°19'7 7.4
2016-May-21 01:31N 39°19' W 076°13'7 7.6
2016-May-21 00:33N 39°23' W 076°05'7 7.2
2016-May-20 23:33N 39°28' W 075°58'6 6.5
2016-May-20 22:33N 39°32' W 075°51'6 6.3
2016-May-20 21:33N 39°33' W 075°43'7 7.0
2016-May-20 20:33N 39°34' W 075°34'7 6.9
2016-May-20 19:33N 39°40' W 075°32'9 9.0
2016-May-20 18:33N 39°48' W 075°25'8 7.9
2016-May-20 17:34N 39°51' W 075°16'4 3.6
2016-May-20 16:31N 39°54' W 075°12'0 0.0
2016-May-20 15:33N 39°54' W 075°13'0 0.1
2016-May-20 14:31N 39°54' W 075°12'1 0.6
2016-May-20 13:28N 39°53' W 075°12'0 0.0
2016-May-20 12:31N 39°53' W 075°12'0 0.0
2016-May-20 11:32N 39°53' W 075°12'0 0.0
2016-May-20 10:33N 39°53' W 075°12'0 0.0
2016-May-20 09:33N 39°53' W 075°12'0 0.0
2016-May-20 08:31N 39°53' W 075°12'0 0.0
2016-May-20 07:32N 39°54' W 075°12'1 0.7
2016-May-20 06:32N 39°54' W 075°12'5 4.9
2016-May-20 05:33N 39°51' W 075°17'9 9.0
2016-May-20 04:33N 39°46' W 075°28'9 9.5
2016-May-20 03:33N 39°38' W 075°34'9 9.4
2016-May-20 02:33N 39°29' W 075°34'1010.3
2016-May-20 01:33N 39°21' W 075°26'9 9.2
2016-May-20 00:33N 39°12' W 075°21'2 2.2
2016-May-19 23:32N 39°11' W 075°24'0 0.0
2016-May-19 22:33N 39°11' W 075°24'0 0.0
2016-May-19 21:31N 39°11' W 075°24'0 0.0
2016-May-19 20:28N 39°11' W 075°24'0 0.0
2016-May-19 19:29N 39°11' W 075°24'0 0.0
2016-May-19 18:33N 39°11' W 075°24'0 0.0
2016-May-19 17:33N 39°11' W 075°24'0 0.0
2016-May-19 16:28N 39°11' W 075°24'0 0.0
2016-May-19 15:32N 39°11' W 075°24'0 0.0
2016-May-19 14:32N 39°11' W 075°24'0 0.0
2016-May-19 13:30N 39°11' W 075°24'0 0.1
2016-May-19 12:31N 39°11' W 075°24'4 4.3
2016-May-19 11:34N 39°14' W 075°20'5 4.9
2016-May-19 10:34N 39°18' W 075°23'7 6.6
2016-May-19 09:33N 39°23' W 075°29'7 6.8
2016-May-19 08:34N 39°29' W 075°34'5 5.3
2016-May-19 07:34N 39°33' W 075°38'7 7.3
2016-May-19 06:33N 39°32' W 075°47'6 6.0
2016-May-19 05:34N 39°30' W 075°55'7 7.0
2016-May-19 04:33N 39°25' W 076°01'7 7.0
2016-May-19 03:34N 39°22' W 076°09'7 6.6
2016-May-19 02:33N 39°17' W 076°15'6 6.4
2016-May-19 01:32N 39°13' W 076°21'  

Dump ship's entire track history